This is the latest recevied weather packets stored in our database for station/object N5ZP. If no packets are shown the sender has not sent any weather packets the latest 10 day(s).
| Time | Temp. | Humidity | Pressure | Rain* | Wind** | Luminosity | Snow |
|---|---|---|---|---|---|---|---|
| 1778085920 | 12.22° C | 84% | 1012.3 hPa | 0 mm | - | 119 W/m² | - |
| 1778085618 | 12.22° C | 85% | 1012.1 hPa | 0 mm | - | 94 W/m² | - |
| 1778085314 | 12.22° C | 86% | 1012 hPa | 0 mm | - | 102 W/m² | - |
| 1778085010 | 11.67° C | 85% | 1012 hPa | 0 mm | - | 98 W/m² | - |
| 1778084706 | 11.67° C | 86% | 1012 hPa | 0 mm | - | 118 W/m² | - |
| 1778084403 | 11.67° C | 86% | 1011.9 hPa | 0 mm | - | 101 W/m² | - |
| 1778084101 | 11.67° C | 87% | 1011.7 hPa | 0 mm | - | 97 W/m² | - |
| 1778083798 | 11.67° C | 87% | 1011.8 hPa | 0 mm | - | 108 W/m² | - |
| 1778083495 | 11.67° C | 87% | 1011.6 hPa | 0 mm | - | 127 W/m² | - |
| 1778083192 | 11.67° C | 88% | 1011.7 hPa | 0 mm | - | 137 W/m² | - |
| 1778082890 | 11.67° C | 88% | 1011.7 hPa | 0 mm | - | 145 W/m² | - |
| 1778081776 | 11.11° C | 91% | 1012.2 hPa | 0 mm | - | 147 W/m² | - |
| 1778081474 | 11.67° C | 91% | 1012.3 hPa | 0 mm | - | 89 W/m² | - |
| 1778081171 | 11.67° C | 92% | 1012 hPa | 0 mm | - | 138 W/m² | - |
| 1778080869 | 11.11° C | 92% | 1011.7 hPa | 1.27 mm | - | 221 W/m² | - |
| 1778080567 | 11.11° C | 91% | 1012 hPa | 1.27 mm | - | 236 W/m² | - |
| 1778080263 | 10.56° C | 91% | 1012.7 hPa | 3.05 mm | - | 154 W/m² | - |
| 1778079960 | 10.56° C | 91% | 1013.2 hPa | 3.05 mm | - | 51 W/m² | - |
| 1778079657 | 10.56° C | 90% | 1013.6 hPa | 3.05 mm | - | 38 W/m² | - |
| 1778079354 | 10.56° C | 90% | 1014 hPa | 1.78 mm | - | 36 W/m² | - |
| 1778079051 | 10.56° C | 90% | 1013.9 hPa | 1.27 mm | - | 33 W/m² | - |
| 1778078748 | 10.56° C | 90% | 1014 hPa | 1.27 mm | - | 24 W/m² | - |
| 1778078445 | 10.56° C | 90% | 1013.2 hPa | 0 mm | - | 39 W/m² | - |
| 1778078142 | 10.56° C | 89% | 1012.8 hPa | 0 mm | - | 32 W/m² | - |
| 1778077841 | 10.56° C | 89% | 1012.5 hPa | 0 mm | - | 25 W/m² | - |
* Rain latest hour (hover to see other rain measurements)
** Current wind speed in m/s (hover to see current wind gust speed)